Calmer, Arkansas
Current Conditions -  °F | °C
As of 12:53 PM on Wednesday 26 Nov 2014 (Local Time) from KPBF Reporting Station
Clear Clear  
Wind Chill: 58°   Ceiling: Unl
Heat Index: 58°   Visibility: 10mi
Dew Point: 32°   Wind: 13mph
Humidity: 37%   Direction: 280°W
Pressure: 30.01"   Gusts: NA
Location:  33.947°N, 92.1633°W
Report Text: KPBF 261853Z AUTO 28011KT 10SM CLR 14/00 A3001 RMK AO2 SLP164 T01440000
Loading
Personal Weather Stations






























Interactive Weather Map New forecast layout! Learn more

10-Day Weather Forecast

Advertisements
Track Severe Weather on mobile